2019/06/26 08:20 EDVE 260820Z 29009KT 260V340 CAVOK 31/19 Q1021